sensor_id;sensor_type;location;lat;lon;timestamp;pressure;altitude;pressure_sealevel;temperature;humidity
21129;BME280;10722;51.910;8.352;2024-03-07T00:01:17;101628.13;;;5.60;84.77
21129;BME280;10722;51.910;8.352;2024-03-07T00:04:02;101612.16;;;5.50;84.64
21129;BME280;10722;51.910;8.352;2024-03-07T00:06:48;101611.75;;;5.42;84.64
21129;BME280;10722;51.910;8.352;2024-03-07T00:09:33;101619.31;;;5.55;84.70
21129;BME280;10722;51.910;8.352;2024-03-07T00:12:19;101619.31;;;5.55;84.55
21129;BME280;10722;51.910;8.352;2024-03-07T00:15:05;101623.94;;;5.46;84.87
21129;BME280;10722;51.910;8.352;2024-03-07T00:17:51;101635.00;;;5.45;85.16
21129;BME280;10722;51.910;8.352;2024-03-07T00:20:36;101634.94;;;5.44;84.96
21129;BME280;10722;51.910;8.352;2024-03-07T00:23:21;101628.69;;;5.38;84.89
21129;BME280;10722;51.910;8.352;2024-03-07T00:26:06;101635.72;;;5.26;85.31
21129;BME280;10722;51.910;8.352;2024-03-07T00:28:51;101643.03;;;5.19;85.67
21129;BME280;10722;51.910;8.352;2024-03-07T00:31:36;101651.31;;;5.14;85.56
21129;BME280;10722;51.910;8.352;2024-03-07T00:34:21;101654.34;;;4.91;86.04
21129;BME280;10722;51.910;8.352;2024-03-07T00:37:10;101672.66;;;4.82;86.67
21129;BME280;10722;51.910;8.352;2024-03-07T00:39:56;101685.53;;;4.84;87.14
21129;BME280;10722;51.910;8.352;2024-03-07T00:42:41;101683.81;;;4.68;87.24
21129;BME280;10722;51.910;8.352;2024-03-07T00:45:26;101700.59;;;4.63;88.09
21129;BME280;10722;51.910;8.352;2024-03-07T00:48:11;101714.03;;;4.59;88.36
21129;BME280;10722;51.910;8.352;2024-03-07T00:50:57;101715.63;;;4.71;88.45
21129;BME280;10722;51.910;8.352;2024-03-07T00:53:42;101716.97;;;4.65;88.58
21129;BME280;10722;51.910;8.352;2024-03-07T00:56:27;101713.16;;;4.58;88.75
21129;BME280;10722;51.910;8.352;2024-03-07T00:59:12;101716.00;;;4.63;88.82
21129;BME280;10722;51.910;8.352;2024-03-07T01:01:57;101711.28;;;4.56;88.93
21129;BME280;10722;51.910;8.352;2024-03-07T01:04:43;101714.31;;;4.48;89.06
21129;BME280;10722;51.910;8.352;2024-03-07T01:07:29;101709.97;;;4.47;89.37
21129;BME280;10722;51.910;8.352;2024-03-07T01:10:14;101710.13;;;4.21;89.11
21129;BME280;10722;51.910;8.352;2024-03-07T01:13:00;101730.97;;;4.27;89.62
21129;BME280;10722;51.910;8.352;2024-03-07T01:15:45;101731.59;;;4.23;89.80
21129;BME280;10722;51.910;8.352;2024-03-07T01:18:30;101730.16;;;4.13;89.96
21129;BME280;10722;51.910;8.352;2024-03-07T01:21:15;101732.19;;;4.04;90.26
21129;BME280;10722;51.910;8.352;2024-03-07T01:24:01;101738.97;;;4.03;90.55
21129;BME280;10722;51.910;8.352;2024-03-07T01:26:46;101738.00;;;4.01;90.55
21129;BME280;10722;51.910;8.352;2024-03-07T01:29:32;101737.69;;;4.25;90.44
21129;BME280;10722;51.910;8.352;2024-03-07T01:32:17;101728.28;;;4.11;90.40
21129;BME280;10722;51.910;8.352;2024-03-07T01:35:02;101719.78;;;3.97;90.61
21129;BME280;10722;51.910;8.352;2024-03-07T01:37:47;101725.31;;;4.03;90.73
21129;BME280;10722;51.910;8.352;2024-03-07T01:40:32;101724.78;;;4.09;90.71
21129;BME280;10722;51.910;8.352;2024-03-07T01:43:17;101707.91;;;3.97;90.38
21129;BME280;10722;51.910;8.352;2024-03-07T01:46:03;101707.25;;;3.87;90.57
21129;BME280;10722;51.910;8.352;2024-03-07T01:48:48;101714.44;;;3.79;90.82
21129;BME280;10722;51.910;8.352;2024-03-07T01:51:34;101715.44;;;3.81;91.06
21129;BME280;10722;51.910;8.352;2024-03-07T01:54:21;101716.84;;;3.76;91.29
21129;BME280;10722;51.910;8.352;2024-03-07T01:57:07;101720.56;;;3.81;91.47
21129;BME280;10722;51.910;8.352;2024-03-07T01:59:52;101716.66;;;3.73;91.48
21129;BME280;10722;51.910;8.352;2024-03-07T02:02:37;101705.25;;;3.68;91.48
21129;BME280;10722;51.910;8.352;2024-03-07T02:05:23;101721.47;;;3.68;91.92
21129;BME280;10722;51.910;8.352;2024-03-07T02:08:08;101716.16;;;3.65;92.07
21129;BME280;10722;51.910;8.352;2024-03-07T02:10:53;101718.84;;;3.67;92.20
21129;BME280;10722;51.910;8.352;2024-03-07T02:13:39;101719.22;;;3.73;91.93
21129;BME280;10722;51.910;8.352;2024-03-07T02:16:24;101713.56;;;3.50;92.12
21129;BME280;10722;51.910;8.352;2024-03-07T02:19:14;101714.06;;;3.45;92.53
21129;BME280;10722;51.910;8.352;2024-03-07T02:21:59;101709.31;;;3.51;92.62
21129;BME280;10722;51.910;8.352;2024-03-07T02:24:45;101705.19;;;3.53;92.54
21129;BME280;10722;51.910;8.352;2024-03-07T02:27:30;101706.94;;;3.54;92.22
21129;BME280;10722;51.910;8.352;2024-03-07T02:30:15;101700.22;;;3.41;92.31
21129;BME280;10722;51.910;8.352;2024-03-07T02:33:00;101700.78;;;3.37;92.43
21129;BME280;10722;51.910;8.352;2024-03-07T02:35:45;101702.47;;;3.36;92.61
21129;BME280;10722;51.910;8.352;2024-03-07T02:38:30;101704.03;;;3.34;92.59
21129;BME280;10722;51.910;8.352;2024-03-07T02:41:15;101693.53;;;3.30;92.66
21129;BME280;10722;51.910;8.352;2024-03-07T02:44:00;101692.03;;;3.47;92.51
21129;BME280;10722;51.910;8.352;2024-03-07T02:46:45;101694.00;;;3.37;92.65
21129;BME280;10722;51.910;8.352;2024-03-07T02:49:30;101685.09;;;3.18;92.73
21129;BME280;10722;51.910;8.352;2024-03-07T02:52:15;101695.69;;;3.24;92.97
21129;BME280;10722;51.910;8.352;2024-03-07T02:55:00;101696.13;;;3.17;93.01
21129;BME280;10722;51.910;8.352;2024-03-07T02:57:45;101704.16;;;3.23;93.71
21129;BME280;10722;51.910;8.352;2024-03-07T03:00:31;101698.56;;;3.15;93.14
21129;BME280;10722;51.910;8.352;2024-03-07T03:03:16;101697.19;;;3.20;93.61
21129;BME280;10722;51.910;8.352;2024-03-07T03:06:01;101702.91;;;3.16;93.32
21129;BME280;10722;51.910;8.352;2024-03-07T03:08:47;101707.59;;;3.23;93.45
21129;BME280;10722;51.910;8.352;2024-03-07T03:11:32;101692.00;;;3.19;93.52
21129;BME280;10722;51.910;8.352;2024-03-07T03:14:17;101700.03;;;3.25;93.59
21129;BME280;10722;51.910;8.352;2024-03-07T03:17:03;101686.88;;;3.05;93.38
21129;BME280;10722;51.910;8.352;2024-03-07T03:19:48;101691.50;;;3.11;93.48
21129;BME280;10722;51.910;8.352;2024-03-07T03:22:33;101695.06;;;3.00;93.39
21129;BME280;10722;51.910;8.352;2024-03-07T03:25:19;101691.00;;;2.90;93.90
21129;BME280;10722;51.910;8.352;2024-03-07T03:28:04;101696.13;;;2.90;94.29
21129;BME280;10722;51.910;8.352;2024-03-07T03:30:50;101712.16;;;2.87;94.69
21129;BME280;10722;51.910;8.352;2024-03-07T03:33:35;101705.84;;;2.96;94.78
21129;BME280;10722;51.910;8.352;2024-03-07T03:36:20;101717.78;;;2.82;94.98
21129;BME280;10722;51.910;8.352;2024-03-07T03:39:05;101717.47;;;2.77;95.20
21129;BME280;10722;51.910;8.352;2024-03-07T03:41:50;101721.06;;;2.67;95.28
21129;BME280;10722;51.910;8.352;2024-03-07T03:44:35;101714.50;;;2.58;95.74
21129;BME280;10722;51.910;8.352;2024-03-07T03:47:20;101721.66;;;2.50;96.06
21129;BME280;10722;51.910;8.352;2024-03-07T03:50:06;101729.50;;;2.53;96.55
21129;BME280;10722;51.910;8.352;2024-03-07T03:52:52;101736.56;;;2.44;96.69
21129;BME280;10722;51.910;8.352;2024-03-07T03:55:37;101728.34;;;2.48;97.09
21129;BME280;10722;51.910;8.352;2024-03-07T03:58:22;101731.47;;;2.44;97.20
21129;BME280;10722;51.910;8.352;2024-03-07T04:01:07;101736.84;;;2.35;97.37
21129;BME280;10722;51.910;8.352;2024-03-07T04:03:51;101734.28;;;2.35;97.69
21129;BME280;10722;51.910;8.352;2024-03-07T04:06:37;101734.97;;;2.33;97.76
21129;BME280;10722;51.910;8.352;2024-03-07T04:09:22;101735.78;;;2.32;98.05
21129;BME280;10722;51.910;8.352;2024-03-07T04:12:07;101738.53;;;2.35;98.08
21129;BME280;10722;51.910;8.352;2024-03-07T04:14:53;101732.41;;;2.33;98.33
21129;BME280;10722;51.910;8.352;2024-03-07T04:17:38;101735.28;;;2.37;98.03
21129;BME280;10722;51.910;8.352;2024-03-07T04:20:24;101728.66;;;2.28;98.23
21129;BME280;10722;51.910;8.352;2024-03-07T04:23:09;101736.44;;;2.29;98.29
21129;BME280;10722;51.910;8.352;2024-03-07T04:25:57;101732.91;;;2.27;98.03
21129;BME280;10722;51.910;8.352;2024-03-07T04:28:41;101726.50;;;2.20;98.53
21129;BME280;10722;51.910;8.352;2024-03-07T04:31:26;101728.75;;;2.16;98.41
21129;BME280;10722;51.910;8.352;2024-03-07T04:34:11;101736.50;;;2.17;98.56
21129;BME280;10722;51.910;8.352;2024-03-07T04:36:57;101730.53;;;2.30;98.55
21129;BME280;10722;51.910;8.352;2024-03-07T04:39:42;101721.59;;;2.23;98.57
21129;BME280;10722;51.910;8.352;2024-03-07T04:42:27;101718.31;;;2.13;98.65
21129;BME280;10722;51.910;8.352;2024-03-07T04:45:13;101729.88;;;2.08;98.74
21129;BME280;10722;51.910;8.352;2024-03-07T04:47:58;101719.59;;;2.06;98.97
21129;BME280;10722;51.910;8.352;2024-03-07T04:50:43;101725.91;;;1.99;99.18
21129;BME280;10722;51.910;8.352;2024-03-07T04:53:29;101730.72;;;1.95;99.04
21129;BME280;10722;51.910;8.352;2024-03-07T04:56:14;101721.06;;;1.91;99.30
21129;BME280;10722;51.910;8.352;2024-03-07T04:58:59;101723.75;;;1.92;99.46
21129;BME280;10722;51.910;8.352;2024-03-07T05:01:45;101732.16;;;2.03;99.45
21129;BME280;10722;51.910;8.352;2024-03-07T05:04:30;101731.41;;;1.92;99.11
21129;BME280;10722;51.910;8.352;2024-03-07T05:07:15;101736.78;;;1.84;99.30
21129;BME280;10722;51.910;8.352;2024-03-07T05:10:01;101738.66;;;1.86;100.00
21129;BME280;10722;51.910;8.352;2024-03-07T05:12:46;101746.19;;;1.85;99.90
21129;BME280;10722;51.910;8.352;2024-03-07T05:15:31;101743.44;;;1.82;100.00
21129;BME280;10722;51.910;8.352;2024-03-07T05:18:16;101749.53;;;1.84;100.00
21129;BME280;10722;51.910;8.352;2024-03-07T05:21:01;101745.31;;;1.84;100.00
21129;BME280;10722;51.910;8.352;2024-03-07T05:23:46;101752.91;;;1.96;100.00
21129;BME280;10722;51.910;8.352;2024-03-07T05:26:32;101746.84;;;1.82;100.00
21129;BME280;10722;51.910;8.352;2024-03-07T05:29:16;101747.66;;;1.81;100.00
21129;BME280;10722;51.910;8.352;2024-03-07T05:35:08;101746.19;;;1.85;100.00
21129;BME280;10722;51.910;8.352;2024-03-07T05:37:53;101754.38;;;1.92;100.00
21129;BME280;10722;51.910;8.352;2024-03-07T05:40:38;101748.28;;;2.15;100.00
21129;BME280;10722;51.910;8.352;2024-03-07T05:43:23;101743.44;;;2.07;100.00
21129;BME280;10722;51.910;8.352;2024-03-07T05:46:09;101752.19;;;2.10;100.00
21129;BME280;10722;51.910;8.352;2024-03-07T05:48:54;101750.25;;;2.19;100.00
21129;BME280;10722;51.910;8.352;2024-03-07T05:51:39;101737.59;;;2.21;100.00
21129;BME280;10722;51.910;8.352;2024-03-07T05:54:23;101754.66;;;2.34;100.00
21129;BME280;10722;51.910;8.352;2024-03-07T05:57:08;101760.16;;;2.40;100.00
21129;BME280;10722;51.910;8.352;2024-03-07T05:59:53;101763.81;;;2.18;100.00
21129;BME280;10722;51.910;8.352;2024-03-07T06:02:39;101762.84;;;2.30;100.00
21129;BME280;10722;51.910;8.352;2024-03-07T06:05:24;101766.53;;;2.46;100.00
21129;BME280;10722;51.910;8.352;2024-03-07T06:08:09;101766.34;;;2.43;100.00
21129;BME280;10722;51.910;8.352;2024-03-07T06:10:54;101765.66;;;2.46;100.00
21129;BME280;10722;51.910;8.352;2024-03-07T06:13:39;101764.13;;;2.61;100.00
21129;BME280;10722;51.910;8.352;2024-03-07T06:16:24;101758.25;;;2.62;100.00
21129;BME280;10722;51.910;8.352;2024-03-07T06:19:09;101764.34;;;2.78;100.00
21129;BME280;10722;51.910;8.352;2024-03-07T06:21:56;101753.13;;;2.76;100.00
21129;BME280;10722;51.910;8.352;2024-03-07T06:24:41;101751.19;;;2.85;100.00
21129;BME280;10722;51.910;8.352;2024-03-07T06:27:26;101755.22;;;2.95;100.00
21129;BME280;10722;51.910;8.352;2024-03-07T06:30:12;101743.44;;;2.97;100.00
21129;BME280;10722;51.910;8.352;2024-03-07T06:32:57;101743.22;;;2.94;100.00
21129;BME280;10722;51.910;8.352;2024-03-07T06:35:42;101739.38;;;3.00;100.00
21129;BME280;10722;51.910;8.352;2024-03-07T06:38:28;101744.78;;;3.18;100.00
21129;BME280;10722;51.910;8.352;2024-03-07T06:41:13;101739.09;;;3.35;99.89
21129;BME280;10722;51.910;8.352;2024-03-07T06:43:58;101737.59;;;3.39;100.00
21129;BME280;10722;51.910;8.352;2024-03-07T06:46:43;101729.41;;;3.45;99.58
21129;BME280;10722;51.910;8.352;2024-03-07T06:49:28;101720.06;;;3.45;99.35
21129;BME280;10722;51.910;8.352;2024-03-07T06:52:14;101719.00;;;3.42;99.17
21129;BME280;10722;51.910;8.352;2024-03-07T06:54:59;101714.16;;;3.46;99.07
21129;BME280;10722;51.910;8.352;2024-03-07T06:57:44;101714.38;;;3.49;98.94
21129;BME280;10722;51.910;8.352;2024-03-07T07:00:29;101712.38;;;3.45;98.72
21129;BME280;10722;51.910;8.352;2024-03-07T07:03:15;101706.88;;;3.52;98.86
21129;BME280;10722;51.910;8.352;2024-03-07T07:05:59;101718.75;;;3.52;98.90
21129;BME280;10722;51.910;8.352;2024-03-07T07:08:45;101716.94;;;3.49;98.59
21129;BME280;10722;51.910;8.352;2024-03-07T07:11:30;101725.13;;;3.72;98.72
21129;BME280;10722;51.910;8.352;2024-03-07T07:14:19;101717.63;;;3.75;98.29
21129;BME280;10722;51.910;8.352;2024-03-07T07:17:04;101712.56;;;3.90;98.16
21129;BME280;10722;51.910;8.352;2024-03-07T07:19:52;101708.81;;;3.85;97.84
21129;BME280;10722;51.910;8.352;2024-03-07T07:22:37;101719.41;;;3.76;97.93
21129;BME280;10722;51.910;8.352;2024-03-07T07:25:22;101723.66;;;3.90;98.01
21129;BME280;10722;51.910;8.352;2024-03-07T07:28:07;101710.16;;;3.93;97.76
21129;BME280;10722;51.910;8.352;2024-03-07T07:30:52;101716.16;;;3.93;97.62
21129;BME280;10722;51.910;8.352;2024-03-07T07:33:37;101713.59;;;3.93;97.10
21129;BME280;10722;51.910;8.352;2024-03-07T07:36:22;101712.91;;;3.96;96.96
21129;BME280;10722;51.910;8.352;2024-03-07T07:39:07;101713.44;;;3.90;97.44
21129;BME280;10722;51.910;8.352;2024-03-07T07:41:52;101720.44;;;4.08;97.41
21129;BME280;10722;51.910;8.352;2024-03-07T07:44:37;101710.88;;;4.05;97.22
21129;BME280;10722;51.910;8.352;2024-03-07T07:47:22;101709.84;;;4.01;97.16
21129;BME280;10722;51.910;8.352;2024-03-07T07:50:12;101704.56;;;4.13;96.89
21129;BME280;10722;51.910;8.352;2024-03-07T07:52:58;101694.06;;;4.09;96.90
21129;BME280;10722;51.910;8.352;2024-03-07T07:55:43;101697.19;;;3.90;96.85
21129;BME280;10722;51.910;8.352;2024-03-07T07:58:28;101689.41;;;3.88;96.75
21129;BME280;10722;51.910;8.352;2024-03-07T08:01:13;101699.69;;;4.03;96.92
21129;BME280;10722;51.910;8.352;2024-03-07T08:03:58;101694.66;;;4.04;96.48
21129;BME280;10722;51.910;8.352;2024-03-07T08:06:43;101697.44;;;4.22;96.92
21129;BME280;10722;51.910;8.352;2024-03-07T08:09:28;101691.56;;;4.10;96.51
21129;BME280;10722;51.910;8.352;2024-03-07T08:12:13;101684.88;;;4.27;96.87
21129;BME280;10722;51.910;8.352;2024-03-07T08:14:58;101674.09;;;4.33;96.75
21129;BME280;10722;51.910;8.352;2024-03-07T08:17:43;101689.38;;;4.46;96.74
21129;BME280;10722;51.910;8.352;2024-03-07T08:20:29;101680.13;;;4.48;97.03
21129;BME280;10722;51.910;8.352;2024-03-07T08:23:14;101666.25;;;4.59;96.09
21129;BME280;10722;51.910;8.352;2024-03-07T08:26:00;101662.13;;;4.78;95.78
21129;BME280;10722;51.910;8.352;2024-03-07T08:28:45;101637.13;;;4.59;95.14
21129;BME280;10722;51.910;8.352;2024-03-07T08:31:30;101637.50;;;4.50;95.36
21129;BME280;10722;51.910;8.352;2024-03-07T08:34:14;101653.59;;;4.47;95.62
21129;BME280;10722;51.910;8.352;2024-03-07T08:36:59;101652.72;;;4.62;95.94
21129;BME280;10722;51.910;8.352;2024-03-07T08:39:44;101666.28;;;4.76;95.80
21129;BME280;10722;51.910;8.352;2024-03-07T08:42:30;101658.84;;;4.80;95.72
21129;BME280;10722;51.910;8.352;2024-03-07T08:45:15;101652.06;;;4.66;95.56
21129;BME280;10722;51.910;8.352;2024-03-07T08:48:01;101660.09;;;4.72;95.76
21129;BME280;10722;51.910;8.352;2024-03-07T08:50:46;101671.41;;;4.90;96.19
21129;BME280;10722;51.910;8.352;2024-03-07T08:53:31;101667.97;;;4.90;95.75
21129;BME280;10722;51.910;8.352;2024-03-07T08:56:16;101662.28;;;4.96;95.69
21129;BME280;10722;51.910;8.352;2024-03-07T08:59:01;101661.59;;;4.83;95.85
21129;BME280;10722;51.910;8.352;2024-03-07T09:01:47;101670.00;;;5.12;95.90
21129;BME280;10722;51.910;8.352;2024-03-07T09:04:32;101671.78;;;5.29;96.05
21129;BME280;10722;51.910;8.352;2024-03-07T09:07:17;101669.03;;;5.41;96.25
21129;BME280;10722;51.910;8.352;2024-03-07T09:10:02;101668.53;;;5.48;95.50
21129;BME280;10722;51.910;8.352;2024-03-07T09:12:50;101658.03;;;5.60;95.33
21129;BME280;10722;51.910;8.352;2024-03-07T09:15:36;101660.53;;;5.75;95.24
21129;BME280;10722;51.910;8.352;2024-03-07T09:18:21;101654.19;;;5.84;94.92
21129;BME280;10722;51.910;8.352;2024-03-07T09:21:06;101649.19;;;5.88;94.82
21129;BME280;10722;51.910;8.352;2024-03-07T09:23:51;101646.47;;;6.17;94.52
21129;BME280;10722;51.910;8.352;2024-03-07T09:26:37;101644.16;;;6.40;93.88
21129;BME280;10722;51.910;8.352;2024-03-07T09:29:22;101628.91;;;6.26;93.95
21129;BME280;10722;51.910;8.352;2024-03-07T09:32:08;101624.50;;;6.24;93.38
21129;BME280;10722;51.910;8.352;2024-03-07T09:34:53;101624.22;;;6.36;92.96
21129;BME280;10722;51.910;8.352;2024-03-07T09:37:42;101605.06;;;6.47;92.61
21129;BME280;10722;51.910;8.352;2024-03-07T09:40:27;101606.16;;;6.52;92.14
21129;BME280;10722;51.910;8.352;2024-03-07T09:43:13;101605.28;;;6.69;92.10
21129;BME280;10722;51.910;8.352;2024-03-07T09:45:58;101588.97;;;6.69;91.39
21129;BME280;10722;51.910;8.352;2024-03-07T09:48:43;101591.09;;;6.78;91.31
21129;BME280;10722;51.910;8.352;2024-03-07T09:51:29;101598.25;;;7.03;91.26
21129;BME280;10722;51.910;8.352;2024-03-07T09:54:14;101581.00;;;7.19;90.26
21129;BME280;10722;51.910;8.352;2024-03-07T09:56:59;101544.97;;;7.00;89.20
21129;BME280;10722;51.910;8.352;2024-03-07T09:59:46;101556.34;;;7.25;89.15
21129;BME280;10722;51.910;8.352;2024-03-07T10:02:32;101542.06;;;7.31;88.28
21129;BME280;10722;51.910;8.352;2024-03-07T10:05:22;101535.75;;;7.84;87.65
21129;BME280;10722;51.910;8.352;2024-03-07T10:08:07;101512.91;;;8.15;86.66
21129;BME280;10722;51.910;8.352;2024-03-07T10:10:54;101475.47;;;8.45;85.05
21129;BME280;10722;51.910;8.352;2024-03-07T10:13:40;101462.50;;;8.44;84.71
21129;BME280;10722;51.910;8.352;2024-03-07T10:16:25;101455.38;;;8.59;83.77
21129;BME280;10722;51.910;8.352;2024-03-07T10:19:10;101452.91;;;8.86;83.36
21129;BME280;10722;51.910;8.352;2024-03-07T10:21:55;101440.09;;;9.13;82.40
21129;BME280;10722;51.910;8.352;2024-03-07T10:24:49;101415.72;;;8.81;81.62
21129;BME280;10722;51.910;8.352;2024-03-07T10:27:36;101428.75;;;8.38;82.09
21129;BME280;10722;51.910;8.352;2024-03-07T10:30:21;101454.56;;;7.73;82.79
21129;BME280;10722;51.910;8.352;2024-03-07T10:33:07;101472.88;;;7.39;83.84
21129;BME280;10722;51.910;8.352;2024-03-07T10:35:52;101528.16;;;7.47;85.41
21129;BME280;10722;51.910;8.352;2024-03-07T10:38:38;101528.69;;;7.40;85.40
21129;BME280;10722;51.910;8.352;2024-03-07T10:41:27;101540.78;;;7.41;85.53
21129;BME280;10722;51.910;8.352;2024-03-07T10:44:19;101551.00;;;7.39;86.28
21129;BME280;10722;51.910;8.352;2024-03-07T10:47:05;101558.38;;;7.51;86.73
21129;BME280;10722;51.910;8.352;2024-03-07T10:50:09;101568.97;;;7.78;86.23
21129;BME280;10722;51.910;8.352;2024-03-07T10:52:59;101551.31;;;7.88;86.05
21129;BME280;10722;51.910;8.352;2024-03-07T10:59:11;101540.84;;;8.04;85.42
21129;BME280;10722;51.910;8.352;2024-03-07T11:02:33;101525.19;;;7.78;85.24
21129;BME280;10722;51.910;8.352;2024-03-07T11:05:26;101523.09;;;7.70;85.83
21129;BME280;10722;51.910;8.352;2024-03-07T11:08:11;101511.59;;;7.61;85.38
21129;BME280;10722;51.910;8.352;2024-03-07T11:10:58;101529.66;;;7.42;85.83
21129;BME280;10722;51.910;8.352;2024-03-07T11:13:44;101543.41;;;7.43;86.31
21129;BME280;10722;51.910;8.352;2024-03-07T11:16:32;101535.28;;;7.33;86.41
21129;BME280;10722;51.910;8.352;2024-03-07T11:22:07;101541.38;;;7.55;86.75
21129;BME280;10722;51.910;8.352;2024-03-07T11:25:04;101544.00;;;7.56;86.73
21129;BME280;10722;51.910;8.352;2024-03-07T11:27:59;101549.16;;;7.56;87.09
21129;BME280;10722;51.910;8.352;2024-03-07T11:30:44;101539.41;;;7.49;86.77
21129;BME280;10722;51.910;8.352;2024-03-07T11:33:29;101552.28;;;7.49;86.93
21129;BME280;10722;51.910;8.352;2024-03-07T11:36:41;101554.72;;;8.07;86.46
21129;BME280;10722;51.910;8.352;2024-03-07T11:39:48;101485.59;;;8.41;84.45
21129;BME280;10722;51.910;8.352;2024-03-07T11:42:34;101447.44;;;8.55;82.97
21129;BME280;10722;51.910;8.352;2024-03-07T11:45:20;101398.34;;;8.51;81.42
21129;BME280;10722;51.910;8.352;2024-03-07T11:48:06;101384.06;;;8.61;80.67
21129;BME280;10722;51.910;8.352;2024-03-07T11:50:51;101358.09;;;8.81;80.09
21129;BME280;10722;51.910;8.352;2024-03-07T11:53:40;101338.56;;;9.13;78.81
21129;BME280;10722;51.910;8.352;2024-03-07T11:56:25;101299.09;;;9.17;77.08
21129;BME280;10722;51.910;8.352;2024-03-07T11:59:10;101278.78;;;9.01;76.23
21129;BME280;10722;51.910;8.352;2024-03-07T12:01:56;101290.13;;;9.06;76.47
21129;BME280;10722;51.910;8.352;2024-03-07T12:04:41;101294.19;;;9.25;76.08
21129;BME280;10722;51.910;8.352;2024-03-07T12:07:27;101274.03;;;9.69;75.02
21129;BME280;10722;51.910;8.352;2024-03-07T12:10:12;101233.03;;;9.81;73.40
21129;BME280;10722;51.910;8.352;2024-03-07T12:12:57;101181.00;;;9.38;72.34
21129;BME280;10722;51.910;8.352;2024-03-07T12:15:43;101211.03;;;9.35;72.67
21129;BME280;10722;51.910;8.352;2024-03-07T12:18:28;101199.09;;;9.40;72.12
21129;BME280;10722;51.910;8.352;2024-03-07T12:21:14;101214.91;;;9.49;72.11
21129;BME280;10722;51.910;8.352;2024-03-07T12:24:10;101201.22;;;9.53;71.85
21129;BME280;10722;51.910;8.352;2024-03-07T12:27:12;101239.00;;;9.50;72.92
21129;BME280;10722;51.910;8.352;2024-03-07T12:29:57;101240.72;;;9.79;72.75
21129;BME280;10722;51.910;8.352;2024-03-07T12:32:48;101233.44;;;10.26;71.89
21129;BME280;10722;51.910;8.352;2024-03-07T12:35:34;101224.34;;;10.41;71.49
21129;BME280;10722;51.910;8.352;2024-03-07T12:38:20;101192.16;;;9.68;71.53
21129;BME280;10722;51.910;8.352;2024-03-07T12:41:06;101244.66;;;10.59;71.82
21129;BME280;10722;51.910;8.352;2024-03-07T12:43:51;101176.41;;;10.22;70.23
21129;BME280;10722;51.910;8.352;2024-03-07T12:46:36;101132.41;;;9.25;70.48
21129;BME280;10722;51.910;8.352;2024-03-07T12:49:24;101224.34;;;9.77;71.98
21129;BME280;10722;51.910;8.352;2024-03-07T12:52:10;101258.22;;;10.50;71.97
21129;BME280;10722;51.910;8.352;2024-03-07T12:54:55;101145.63;;;9.98;69.75
21129;BME280;10722;51.910;8.352;2024-03-07T12:57:40;101154.03;;;9.89;69.89
21129;BME280;10722;51.910;8.352;2024-03-07T13:00:25;101144.78;;;9.99;69.67
21129;BME280;10722;51.910;8.352;2024-03-07T13:03:10;101172.06;;;10.19;69.83
21129;BME280;10722;51.910;8.352;2024-03-07T13:05:56;101127.69;;;11.11;67.86
21129;BME280;10722;51.910;8.352;2024-03-07T13:08:41;101075.13;;;12.05;64.95
21129;BME280;10722;51.910;8.352;2024-03-07T13:11:27;101006.03;;;11.60;63.77
21129;BME280;10722;51.910;8.352;2024-03-07T13:14:13;101029.75;;;12.31;62.71
21129;BME280;10722;51.910;8.352;2024-03-07T13:16:59;100958.06;;;10.45;63.28
21129;BME280;10722;51.910;8.352;2024-03-07T13:19:44;101023.97;;;10.26;64.45
21129;BME280;10722;51.910;8.352;2024-03-07T13:22:29;101087.69;;;10.97;65.13
21129;BME280;10722;51.910;8.352;2024-03-07T13:25:21;101033.88;;;11.25;63.37
21129;BME280;10722;51.910;8.352;2024-03-07T13:28:09;101015.28;;;11.44;62.65
21129;BME280;10722;51.910;8.352;2024-03-07T13:30:56;100913.59;;;10.24;61.51
21129;BME280;10722;51.910;8.352;2024-03-07T13:33:40;100932.41;;;9.80;62.67
21129;BME280;10722;51.910;8.352;2024-03-07T13:36:26;100967.59;;;9.75;63.29
21129;BME280;10722;51.910;8.352;2024-03-07T13:39:12;100981.16;;;10.01;63.32
21129;BME280;10722;51.910;8.352;2024-03-07T13:41:58;100996.63;;;10.00;63.59
21129;BME280;10722;51.910;8.352;2024-03-07T13:44:43;101060.59;;;10.42;65.00
21129;BME280;10722;51.910;8.352;2024-03-07T13:47:28;101027.81;;;10.06;64.67
21129;BME280;10722;51.910;8.352;2024-03-07T13:50:17;101052.28;;;10.22;65.07
21129;BME280;10722;51.910;8.352;2024-03-07T13:53:15;100983.38;;;10.22;63.00
21129;BME280;10722;51.910;8.352;2024-03-07T14:08:20;100980.28;;;9.33;63.76
21129;BME280;10722;51.910;8.352;2024-03-07T14:11:28;100985.22;;;9.57;63.59
21129;BME280;10722;51.910;8.352;2024-03-07T14:33:00;100947.09;;;9.47;62.42
21129;BME280;10722;51.910;8.352;2024-03-07T14:36:02;100968.63;;;9.49;62.90
21129;BME280;10722;51.910;8.352;2024-03-07T14:38:50;100989.13;;;9.74;62.97
21129;BME280;10722;51.910;8.352;2024-03-07T14:44:46;100951.16;;;10.08;61.86
21129;BME280;10722;51.910;8.352;2024-03-07T14:47:31;100956.63;;;10.22;61.77
21129;BME280;10722;51.910;8.352;2024-03-07T14:50:16;100968.44;;;10.10;62.25
21129;BME280;10722;51.910;8.352;2024-03-07T14:53:02;101035.47;;;10.38;63.96
21129;BME280;10722;51.910;8.352;2024-03-07T14:55:47;101081.88;;;9.65;66.16
21129;BME280;10722;51.910;8.352;2024-03-07T14:58:32;101144.03;;;9.71;68.11
21129;BME280;10722;51.910;8.352;2024-03-07T15:01:17;101172.44;;;10.01;68.73
21129;BME280;10722;51.910;8.352;2024-03-07T15:04:02;101167.63;;;9.52;69.65
21129;BME280;10722;51.910;8.352;2024-03-07T15:06:49;101198.56;;;9.50;70.32
21129;BME280;10722;51.910;8.352;2024-03-07T15:09:34;101187.22;;;9.45;70.42
21129;BME280;10722;51.910;8.352;2024-03-07T15:12:19;101200.22;;;9.19;71.22
21129;BME280;10722;51.910;8.352;2024-03-07T15:15:04;101216.28;;;9.38;71.46
21129;BME280;10722;51.910;8.352;2024-03-07T15:18:00;101170.00;;;9.15;70.98
21129;BME280;10722;51.910;8.352;2024-03-07T15:20:46;101152.63;;;9.11;70.28